Time;durP1;ratioP1;P1;durP2;ratioP2;P2;SDS_P1;SDS_P2;PMS_P1;PMS_P2;Temp;Humidity;BMP_temperature;BMP_pressure;BME280_temperature;BME280_humidity;BME280_pressure;Samples;Min_cycle;Max_cycle;Signal;HPM_P1;HPM_P2
2021/09/12 00:01:22;;;;;;;8.60;3.90;;;;;;;;;;5031360;28;20657;-83
2021/09/12 00:03:50;;;;;;;3.93;3.73;;;;;;;;;;5032703;28;20248;-83
2021/09/12 00:06:17;;;;;;;7.57;4.00;;;;;;;;;;5031582;28;20192;-82
2021/09/12 00:08:44;;;;;;;4.33;3.93;;;;;;;;;;5032779;28;20676;-83
2021/09/12 00:11:10;;;;;;;6.50;3.80;;;;;;;;;;5032383;28;20240;-82
2021/09/12 00:13:37;;;;;;;6.13;4.30;;;;;;;;;;5031190;28;20212;-83
2021/09/12 00:16:04;;;;;;;4.63;4.23;;;;;;;;;;5031237;28;20243;-82
2021/09/12 00:18:31;;;;;;;5.17;4.33;;;;;;;;;;5032243;28;20572;-82
2021/09/12 00:20:58;;;;;;;4.10;3.90;;;;;;;;;;5031036;28;20742;-82
2021/09/12 00:23:25;;;;;;;4.37;3.97;;;;;;;;;;5032205;28;20204;-83
2021/09/12 00:25:52;;;;;;;5.83;3.97;;;;;;;;;;5030758;28;20599;-83
2021/09/12 00:28:18;;;;;;;4.47;4.07;;;;;;;;;;5030637;28;20720;-83
2021/09/12 00:30:45;;;;;;;4.20;3.80;;;;;;;;;;5039770;28;20258;-83
2021/09/12 00:33:12;;;;;;;6.13;4.40;;;;;;;;;;5051872;28;20239;-83
2021/09/12 00:35:38;;;;;;;4.63;4.03;;;;;;;;;;5051987;28;20791;-83
2021/09/12 00:38:07;;;;;;;5.40;3.83;;;;;;;;;;5052122;28;20286;-83
2021/09/12 00:40:34;;;;;;;4.53;4.23;;;;;;;;;;5033892;28;20203;-83
2021/09/12 00:43:01;;;;;;;4.27;3.90;;;;;;;;;;5052162;28;20214;-83
2021/09/12 00:45:27;;;;;;;5.07;4.07;;;;;;;;;;5051762;28;20199;-82
2021/09/12 00:47:54;;;;;;;5.00;3.87;;;;;;;;;;5052084;28;20243;-83
2021/09/12 00:50:21;;;;;;;12.57;4.00;;;;;;;;;;5051166;28;20227;-82
2021/09/12 00:52:48;;;;;;;5.47;3.43;;;;;;;;;;5033804;28;20257;-82
2021/09/12 00:55:17;;;;;;;4.23;3.47;;;;;;;;;;5051716;28;20636;-83
2021/09/12 00:57:45;;;;;;;4.17;3.80;;;;;;;;;;5034037;28;20611;-83
2021/09/12 01:00:12;;;;;;;6.47;4.17;;;;;;;;;;5051705;28;20239;-82
2021/09/12 01:02:39;;;;;;;4.40;4.00;;;;;;;;;;5051827;28;20215;-83
2021/09/12 01:05:06;;;;;;;5.33;4.00;;;;;;;;;;5033894;28;20294;-83
2021/09/12 01:07:33;;;;;;;5.93;3.87;;;;;;;;;;5033665;28;20241;-83
2021/09/12 01:10:00;;;;;;;5.17;3.80;;;;;;;;;;5051624;28;20244;-83
2021/09/12 01:12:28;;;;;;;4.00;3.70;;;;;;;;;;5033801;28;20199;-83
2021/09/12 01:14:55;;;;;;;5.77;3.40;;;;;;;;;;5037088;28;20207;-83
2021/09/12 01:17:25;;;;;;;7.20;3.43;;;;;;;;;;5037653;28;20256;-82
2021/09/12 01:19:52;;;;;;;4.60;4.17;;;;;;;;;;5037708;28;20568;-82
2021/09/12 01:22:19;;;;;;;4.30;3.60;;;;;;;;;;5055344;28;20246;-84
2021/09/12 01:24:47;;;;;;;6.90;3.90;;;;;;;;;;5037384;28;20284;-84
2021/09/12 01:27:14;;;;;;;7.10;4.03;;;;;;;;;;5055470;28;20222;-83
2021/09/12 01:29:40;;;;;;;4.23;3.73;;;;;;;;;;5037735;28;20191;-83
2021/09/12 01:32:07;;;;;;;4.50;4.00;;;;;;;;;;5034196;28;20263;-86
2021/09/12 01:34:34;;;;;;;4.00;3.70;;;;;;;;;;5035552;28;20241;-83
2021/09/12 01:37:01;;;;;;;4.20;3.90;;;;;;;;;;5034319;28;20251;-83
2021/09/12 01:39:27;;;;;;;3.93;3.63;;;;;;;;;;5035591;28;20196;-84
2021/09/12 01:41:56;;;;;;;6.63;3.43;;;;;;;;;;5035318;28;20246;-82
2021/09/12 01:44:24;;;;;;;3.70;3.50;;;;;;;;;;5035233;28;20220;-84
2021/09/12 01:46:52;;;;;;;5.33;3.67;;;;;;;;;;5034056;28;20586;-82
2021/09/12 01:49:18;;;;;;;4.93;3.33;;;;;;;;;;5034929;28;20625;-83
2021/09/12 01:51:45;;;;;;;3.83;3.63;;;;;;;;;;5034981;28;20258;-83
2021/09/12 01:54:12;;;;;;;7.97;4.13;;;;;;;;;;5033792;28;20208;-83
2021/09/12 01:56:39;;;;;;;4.30;4.00;;;;;;;;;;5035588;28;20666;-86
2021/09/12 01:59:07;;;;;;;6.00;3.80;;;;;;;;;;5033910;28;20451;-84
2021/09/12 02:01:34;;;;;;;4.30;3.43;;;;;;;;;;5035204;28;20487;-83
2021/09/12 02:04:02;;;;;;;3.90;3.60;;;;;;;;;;5033970;28;20286;-83
2021/09/12 02:06:28;;;;;;;4.10;3.77;;;;;;;;;;5034695;28;20204;-83
2021/09/12 02:08:55;;;;;;;3.73;3.53;;;;;;;;;;5034978;28;20243;-86
2021/09/12 02:11:22;;;;;;;3.53;3.30;;;;;;;;;;5033421;28;20216;-85
2021/09/12 02:13:49;;;;;;;3.60;3.30;;;;;;;;;;5034920;28;20240;-85
2021/09/12 02:16:18;;;;;;;3.70;3.50;;;;;;;;;;5034865;28;20259;-85
2021/09/12 02:18:44;;;;;;;3.83;3.30;;;;;;;;;;5033217;28;20199;-85
2021/09/12 02:21:11;;;;;;;4.57;3.47;;;;;;;;;;5033021;28;20244;-85
2021/09/12 02:23:38;;;;;;;3.30;3.10;;;;;;;;;;5033532;28;20196;-85
2021/09/12 02:26:05;;;;;;;5.53;3.17;;;;;;;;;;5034519;28;20684;-85
2021/09/12 02:28:32;;;;;;;3.27;3.07;;;;;;;;;;5034247;28;20242;-85
2021/09/12 02:30:58;;;;;;;5.07;3.60;;;;;;;;;;5043351;28;20259;-85
2021/09/12 02:33:26;;;;;;;3.40;3.20;;;;;;;;;;5053999;28;20215;-85
2021/09/12 02:35:53;;;;;;;3.47;3.27;;;;;;;;;;5054328;28;20691;-85
2021/09/12 02:38:20;;;;;;;5.53;3.07;;;;;;;;;;5036165;28;20718;-85
2021/09/12 02:40:47;;;;;;;3.67;3.47;;;;;;;;;;5036171;28;20225;-85
2021/09/12 02:43:13;;;;;;;3.60;3.30;;;;;;;;;;5036261;28;20208;-85
2021/09/12 02:45:40;;;;;;;4.87;3.10;;;;;;;;;;5054246;28;20246;-85
2021/09/12 02:48:07;;;;;;;3.43;3.17;;;;;;;;;;5036076;28;20999;-84
2021/09/12 02:50:35;;;;;;;4.43;3.20;;;;;;;;;;5036020;28;20220;-85
2021/09/12 02:53:01;;;;;;;3.00;2.80;;;;;;;;;;5054457;28;20230;-85
2021/09/12 02:55:28;;;;;;;3.40;2.60;;;;;;;;;;5054000;28;20235;-85
2021/09/12 02:57:55;;;;;;;3.83;3.00;;;;;;;;;;5054093;28;20258;-84
2021/09/12 03:00:21;;;;;;;3.17;2.97;;;;;;;;;;5054026;28;20243;-86
2021/09/12 03:02:48;;;;;;;3.00;2.90;;;;;;;;;;5036050;28;20234;-85
2021/09/12 03:05:15;;;;;;;3.10;2.90;;;;;;;;;;5035457;28;20222;-85
2021/09/12 03:07:43;;;;;;;3.30;3.00;;;;;;;;;;5053636;28;20688;-85
2021/09/12 03:10:10;;;;;;;4.83;2.90;;;;;;;;;;5035875;28;20561;-84
2021/09/12 03:12:36;;;;;;;4.63;2.97;;;;;;;;;;5053334;28;20246;-85
2021/09/12 03:15:03;;;;;;;3.20;2.90;;;;;;;;;;5053562;28;20234;-84
2021/09/12 03:17:30;;;;;;;3.10;2.90;;;;;;;;;;5053278;28;20238;-85
2021/09/12 03:19:57;;;;;;;2.90;2.40;;;;;;;;;;5035411;28;20412;-85
2021/09/12 03:22:24;;;;;;;3.63;2.80;;;;;;;;;;5053416;28;20558;-84
2021/09/12 03:24:52;;;;;;;2.80;2.60;;;;;;;;;;5035861;28;20199;-85
2021/09/12 03:27:19;;;;;;;3.10;2.90;;;;;;;;;;5035024;28;20200;-85
2021/09/12 03:29:45;;;;;;;2.80;2.60;;;;;;;;;;5035650;28;20203;-85
2021/09/12 03:32:12;;;;;;;4.07;2.90;;;;;;;;;;5031508;28;20232;-84
2021/09/12 03:34:38;;;;;;;5.43;2.70;;;;;;;;;;5033329;28;20200;-86
2021/09/12 03:37:05;;;;;;;2.50;2.40;;;;;;;;;;5032125;28;20248;-85
2021/09/12 03:39:32;;;;;;;4.17;2.70;;;;;;;;;;5033207;28;20227;-85
2021/09/12 03:42:00;;;;;;;2.40;2.30;;;;;;;;;;5033413;28;20254;-85
2021/09/12 03:44:27;;;;;;;4.17;2.40;;;;;;;;;;5033085;28;20211;-85
2021/09/12 03:46:54;;;;;;;4.30;2.40;;;;;;;;;;5033204;28;20833;-85
2021/09/12 03:49:22;;;;;;;2.57;2.47;;;;;;;;;;5031482;28;20227;-84
2021/09/12 03:51:48;;;;;;;4.43;2.70;;;;;;;;;;5031488;28;20220;-85
2021/09/12 03:54:15;;;;;;;3.00;2.47;;;;;;;;;;5032594;28;20239;-86
2021/09/12 03:56:42;;;;;;;3.20;2.60;;;;;;;;;;5031423;28;20294;-85
2021/09/12 03:59:10;;;;;;;2.77;2.60;;;;;;;;;;5032611;28;20208;-84
2021/09/12 04:01:37;;;;;;;3.07;2.90;;;;;;;;;;5031491;28;20730;-85
2021/09/12 04:04:03;;;;;;;2.87;2.60;;;;;;;;;;5031398;28;20734;-85
2021/09/12 04:06:30;;;;;;;4.07;2.90;;;;;;;;;;5031101;28;20207;-85
2021/09/12 04:08:57;;;;;;;3.33;2.83;;;;;;;;;;5031478;28;20419;-86
2021/09/12 04:11:23;;;;;;;3.90;2.50;;;;;;;;;;5032926;28;20584;-85
2021/09/12 04:13:50;;;;;;;3.03;2.83;;;;;;;;;;5032518;28;20684;-85
2021/09/12 04:16:18;;;;;;;3.03;2.83;;;;;;;;;;5031043;28;20602;-85
2021/09/12 04:18:45;;;;;;;2.70;2.50;;;;;;;;;;5032410;28;20687;-85
2021/09/12 04:21:11;;;;;;;2.70;2.50;;;;;;;;;;5032051;28;20247;-86
2021/09/12 04:23:38;;;;;;;2.70;2.60;;;;;;;;;;5031005;28;20208;-86
2021/09/12 04:26:05;;;;;;;2.90;2.70;;;;;;;;;;5030770;28;20623;-86
2021/09/12 04:28:32;;;;;;;2.87;2.70;;;;;;;;;;5031232;28;20663;-84
2021/09/12 04:30:59;;;;;;;3.07;2.70;;;;;;;;;;5030582;28;20611;-85
2021/09/12 04:33:26;;;;;;;3.97;2.80;;;;;;;;;;5030927;28;20242;-85
2021/09/12 04:35:53;;;;;;;3.07;2.80;;;;;;;;;;5032416;28;20211;-85
2021/09/12 04:38:20;;;;;;;2.83;2.63;;;;;;;;;;5032451;28;20252;-85
2021/09/12 04:40:46;;;;;;;3.63;2.93;;;;;;;;;;5032294;28;20250;-86
2021/09/12 04:43:13;;;;;;;3.20;2.90;;;;;;;;;;5030526;28;20227;-86
2021/09/12 04:45:40;;;;;;;3.43;3.10;;;;;;;;;;5030809;28;20208;-86
2021/09/12 04:48:07;;;;;;;3.30;3.00;;;;;;;;;;5029853;28;20215;-86
2021/09/12 04:50:35;;;;;;;3.27;3.07;;;;;;;;;;5030561;28;20624;-85
2021/09/12 04:53:02;;;;;;;3.10;3.00;;;;;;;;;;5031296;28;20285;-85
2021/09/12 04:55:28;;;;;;;3.20;3.00;;;;;;;;;;5030807;28;20232;-85
2021/09/12 04:57:55;;;;;;;4.63;2.40;;;;;;;;;;5031154;28;20227;-86
2021/09/12 05:00:22;;;;;;;4.03;2.80;;;;;;;;;;5032020;28;20238;-84
2021/09/12 05:02:49;;;;;;;3.07;2.77;;;;;;;;;;5030721;28;20269;-85
2021/09/12 05:05:15;;;;;;;3.87;2.80;;;;;;;;;;5030768;28;20250;-85
2021/09/12 05:07:43;;;;;;;3.73;2.60;;;;;;;;;;5030708;28;20664;-85
2021/09/12 05:10:10;;;;;;;2.90;2.70;;;;;;;;;;5031960;28;20656;-84
2021/09/12 05:12:38;;;;;;;4.27;2.90;;;;;;;;;;5031925;28;20258;-86
2021/09/12 05:15:05;;;;;;;3.17;2.80;;;;;;;;;;5031636;28;20232;-85
2021/09/12 05:17:32;;;;;;;2.47;2.30;;;;;;;;;;5032006;28;20684;-85
2021/09/12 05:19:58;;;;;;;3.10;2.90;;;;;;;;;;5032265;28;20184;-86
2021/09/12 05:22:25;;;;;;;5.57;3.00;;;;;;;;;;5032305;28;20252;-85
2021/09/12 05:24:53;;;;;;;2.83;2.67;;;;;;;;;;5030793;28;20196;-86
2021/09/12 05:27:20;;;;;;;2.80;2.63;;;;;;;;;;5030534;28;20821;-85
2021/09/12 05:29:47;;;;;;;2.97;2.77;;;;;;;;;;5030731;28;20232;-86
2021/09/12 05:32:13;;;;;;;4.83;2.83;;;;;;;;;;5029909;28;20278;-86
2021/09/12 05:34:40;;;;;;;3.57;2.90;;;;;;;;;;5032017;28;20212;-85
2021/09/12 05:37:07;;;;;;;3.17;2.90;;;;;;;;;;5031645;28;20255;-85
2021/09/12 05:39:34;;;;;;;2.60;2.50;;;;;;;;;;5031860;28;20247;-86
2021/09/12 05:42:02;;;;;;;2.50;2.30;;;;;;;;;;5030584;28;20567;-85
2021/09/12 05:44:29;;;;;;;3.67;2.73;;;;;;;;;;5031942;28;20618;-85
2021/09/12 05:46:55;;;;;;;3.20;2.90;;;;;;;;;;5032071;28;20204;-86
2021/09/12 05:49:22;;;;;;;3.27;2.90;;;;;;;;;;5030781;28;20299;-85
2021/09/12 05:51:49;;;;;;;2.73;2.53;;;;;;;;;;5031947;28;20255;-85
2021/09/12 05:54:16;;;;;;;2.47;2.37;;;;;;;;;;5029865;28;20677;-85
2021/09/12 05:56:43;;;;;;;3.30;3.00;;;;;;;;;;5031444;28;20251;-85
2021/09/12 05:59:11;;;;;;;5.00;3.10;;;;;;;;;;5030265;28;20758;-85
2021/09/12 06:01:38;;;;;;;3.57;3.30;;;;;;;;;;5034127;28;20644;-85
2021/09/12 06:04:04;;;;;;;3.23;2.97;;;;;;;;;;5034949;28;20576;-86
2021/09/12 06:06:32;;;;;;;3.33;3.13;;;;;;;;;;5033384;28;20342;-85
2021/09/12 06:08:58;;;;;;;3.40;3.10;;;;;;;;;;5035623;28;20235;-85
2021/09/12 06:11:25;;;;;;;3.30;3.00;;;;;;;;;;5035217;28;20219;-85
2021/09/12 06:13:52;;;;;;;3.40;3.20;;;;;;;;;;5033837;28;20250;-85
2021/09/12 06:16:20;;;;;;;4.50;3.23;;;;;;;;;;5035590;28;20243;-85
2021/09/12 06:18:46;;;;;;;4.27;3.73;;;;;;;;;;5033983;28;20575;-84
2021/09/12 06:21:16;;;;;;;5.73;3.70;;;;;;;;;;5034965;28;20180;-85
2021/09/12 06:23:43;;;;;;;4.33;4.00;;;;;;;;;;5034986;28;20211;-85
2021/09/12 06:26:10;;;;;;;3.87;3.57;;;;;;;;;;5035084;28;20208;-85
2021/09/12 06:28:36;;;;;;;4.53;3.87;;;;;;;;;;5033380;28;20231;-85
2021/09/12 06:31:03;;;;;;;6.80;4.10;;;;;;;;;;5033393;28;20228;-85
2021/09/12 06:33:31;;;;;;;4.33;4.03;;;;;;;;;;5034917;28;20239;-85
2021/09/12 06:35:58;;;;;;;5.07;4.60;;;;;;;;;;5035204;28;20208;-85
2021/09/12 06:38:24;;;;;;;5.97;4.17;;;;;;;;;;5035379;28;20259;-86
2021/09/12 06:40:51;;;;;;;4.00;3.77;;;;;;;;;;5033908;28;20648;-86
2021/09/12 06:43:18;;;;;;;4.00;3.70;;;;;;;;;;5032694;28;20615;-84
2021/09/12 06:45:45;;;;;;;3.50;3.40;;;;;;;;;;5033720;28;20691;-84
2021/09/12 06:48:12;;;;;;;3.47;3.23;;;;;;;;;;5033171;28;20636;-84
2021/09/12 06:50:40;;;;;;;3.47;3.27;;;;;;;;;;5032887;28;20228;-83
2021/09/12 06:53:07;;;;;;;3.13;2.93;;;;;;;;;;5034602;28;20227;-83
2021/09/12 06:55:33;;;;;;;3.60;3.40;;;;;;;;;;5033998;28;20243;-84
2021/09/12 06:58:00;;;;;;;3.67;3.40;;;;;;;;;;5033363;28;20247;-84
2021/09/12 07:00:27;;;;;;;3.50;3.27;;;;;;;;;;5033033;28;20216;-84
2021/09/12 07:02:54;;;;;;;3.80;3.60;;;;;;;;;;5032274;28;20200;-84
2021/09/12 07:05:20;;;;;;;3.70;3.40;;;;;;;;;;5032643;28;20193;-83
2021/09/12 07:07:49;;;;;;;4.10;3.47;;;;;;;;;;5034075;28;20353;-83
2021/09/12 07:10:18;;;;;;;3.60;3.40;;;;;;;;;;5033632;28;20208;-84
2021/09/12 07:12:44;;;;;;;3.53;3.33;;;;;;;;;;5033108;28;20668;-84
2021/09/12 07:15:11;;;;;;;4.20;3.90;;;;;;;;;;5031715;28;20759;-84
2021/09/12 07:17:38;;;;;;;4.10;3.90;;;;;;;;;;5032581;28;20200;-84
2021/09/12 07:20:05;;;;;;;3.80;3.50;;;;;;;;;;5031908;28;20235;-83
2021/09/12 07:22:32;;;;;;;3.50;3.40;;;;;;;;;;5033849;28;20204;-85
2021/09/12 07:25:00;;;;;;;4.23;3.83;;;;;;;;;;5032584;28;20223;-84
2021/09/12 07:27:27;;;;;;;3.80;3.57;;;;;;;;;;5034032;28;20621;-84
2021/09/12 07:29:53;;;;;;;3.10;3.00;;;;;;;;;;5032020;28;20208;-84
2021/09/12 07:32:20;;;;;;;3.57;3.30;;;;;;;;;;5031831;28;20727;-85
2021/09/12 07:34:47;;;;;;;3.60;3.40;;;;;;;;;;5033954;28;20239;-84
2021/09/12 07:37:13;;;;;;;4.00;3.70;;;;;;;;;;5032204;28;20204;-83
2021/09/12 07:39:40;;;;;;;3.83;3.57;;;;;;;;;;5033700;28;20616;-84
2021/09/12 07:42:08;;;;;;;4.20;3.90;;;;;;;;;;5032146;28;20222;-83
2021/09/12 07:44:35;;;;;;;3.73;3.40;;;;;;;;;;5032514;28;20234;-83
2021/09/12 07:47:01;;;;;;;3.53;3.40;;;;;;;;;;5032646;28;20192;-85
2021/09/12 07:49:28;;;;;;;3.50;3.30;;;;;;;;;;5032384;28;20234;-85
2021/09/12 07:51:55;;;;;;;3.97;3.73;;;;;;;;;;5032864;28;20208;-84
2021/09/12 07:54:21;;;;;;;3.77;3.57;;;;;;;;;;5034889;28;20207;-88
2021/09/12 07:56:48;;;;;;;3.30;3.10;;;;;;;;;;5034690;28;20181;-84
2021/09/12 07:59:16;;;;;;;3.70;3.43;;;;;;;;;;5033754;28;20274;-85
2021/09/12 08:01:43;;;;;;;3.13;3.03;;;;;;;;;;5032921;28;20668;-83
2021/09/12 08:04:09;;;;;;;3.40;3.23;;;;;;;;;;5033430;28;20208;-84
2021/09/12 08:06:36;;;;;;;4.20;3.33;;;;;;;;;;5033899;28;20216;-86
2021/09/12 08:09:03;;;;;;;3.40;3.20;;;;;;;;;;5033317;28;20246;-83
2021/09/12 08:11:29;;;;;;;3.53;3.33;;;;;;;;;;5033807;28;20216;-84
2021/09/12 08:13:56;;;;;;;3.83;3.53;;;;;;;;;;5034261;28;20245;-86
2021/09/12 08:16:24;;;;;;;3.63;3.43;;;;;;;;;;5033206;28;20250;-83
2021/09/12 08:18:51;;;;;;;2.90;2.80;;;;;;;;;;5031067;28;20302;-84
2021/09/12 08:21:17;;;;;;;3.30;3.10;;;;;;;;;;5031314;28;20235;-81
2021/09/12 08:23:44;;;;;;;3.50;3.20;;;;;;;;;;5032643;28;20593;-85
2021/09/12 08:26:11;;;;;;;3.40;3.20;;;;;;;;;;5032674;28;20180;-85
2021/09/12 08:28:38;;;;;;;3.00;2.80;;;;;;;;;;5031497;28;20246;-85
2021/09/12 08:31:04;;;;;;;2.97;2.73;;;;;;;;;;5030957;28;20232;-86
2021/09/12 08:33:33;;;;;;;3.50;2.50;;;;;;;;;;5030860;28;20253;-85
2021/09/12 08:35:59;;;;;;;2.87;2.70;;;;;;;;;;5031531;28;20641;-85
2021/09/12 08:38:26;;;;;;;2.93;2.63;;;;;;;;;;5032229;28;20216;-87
2021/09/12 08:40:56;;;;;;;2.97;2.70;;;;;;;;;;5033614;28;20208;-86
2021/09/12 08:43:23;;;;;;;2.97;2.77;;;;;;;;;;5032092;28;20204;-86
2021/09/12 08:45:50;;;;;;;2.50;2.40;;;;;;;;;;5033315;28;20241;-85
2021/09/12 08:48:17;;;;;;;2.50;2.40;;;;;;;;;;5033806;28;20672;-86
2021/09/12 08:50:45;;;;;;;3.22;3.03;;;;;;;;;;5034171;28;20232;-89
2021/09/12 08:53:12;;;;;;;3.45;3.25;;;;;;;;;;5033179;28;20208;-88
2021/09/12 08:55:38;;;;;;;2.60;2.50;;;;;;;;;;5034875;28;20216;-89
2021/09/12 08:58:05;;;;;;;2.60;2.50;;;;;;;;;;5033576;28;20208;-84
2021/09/12 09:00:32;;;;;;;1.80;1.70;;;;;;;;;;5034927;28;20231;-88
2021/09/12 09:02:59;;;;;;;2.53;2.20;;;;;;;;;;5035974;28;20223;-88
2021/09/12 09:05:30;;;;;;;2.17;2.08;;;;;;;;;;5036245;28;20734;-88
2021/09/12 09:08:08;;;;;;;2.25;2.10;;;;;;;;;;5035495;28;20695;-88
2021/09/12 09:10:39;;;;;;;1.80;1.80;;;;;;;;;;5032974;28;20214;-88
2021/09/12 09:13:23;;;;;;;2.35;1.70;;;;;;;;;;5033246;28;20204;-87
2021/09/12 09:15:50;;;;;;;1.67;1.48;;;;;;;;;;5032515;28;20250;-87
2021/09/12 09:18:17;;;;;;;34.97;2.33;;;;;;;;;;5031639;28;20270;-86
2021/09/12 09:20:43;;;;;;;2.00;1.90;;;;;;;;;;5033073;28;20267;-87
2021/09/12 09:23:12;;;;;;;1.88;1.77;;;;;;;;;;5033053;28;20677;-84
2021/09/12 09:25:38;;;;;;;1.45;1.45;;;;;;;;;;5033725;28;20735;-87
2021/09/12 09:28:07;;;;;;;1.77;1.67;;;;;;;;;;5033400;28;20191;-82
2021/09/12 09:30:35;;;;;;;1.65;1.60;;;;;;;;;;5033730;28;20226;-85
2021/09/12 09:33:17;;;;;;;1.65;1.55;;;;;;;;;;5034037;28;20196;-85
2021/09/12 09:35:55;;;;;;;1.85;1.75;;;;;;;;;;5033709;28;20214;-85
2021/09/12 09:38:24;;;;;;;1.70;1.60;;;;;;;;;;5038268;28;20203;-83
2021/09/12 09:40:58;;;;;;;1.85;1.73;;;;;;;;;;5038088;28;20257;-85
2021/09/12 09:43:24;;;;;;;2.30;2.10;;;;;;;;;;5038225;28;20682;-83
2021/09/12 09:45:51;;;;;;;1.95;1.92;;;;;;;;;;5056035;28;20702;-85
2021/09/12 09:48:17;;;;;;;1.80;1.70;;;;;;;;;;5037832;28;20207;-86
2021/09/12 09:50:44;;;;;;;1.88;1.77;;;;;;;;;;5040865;28;20216;-85
2021/09/12 09:53:11;;;;;;;2.70;2.00;;;;;;;;;;5040371;28;20254;-82
2021/09/12 09:55:39;;;;;;;2.17;1.90;;;;;;;;;;5055137;28;20203;-82
2021/09/12 09:58:08;;;;;;;1.92;1.83;;;;;;;;;;5037334;28;20203;-84
2021/09/12 10:00:35;;;;;;;1.90;1.80;;;;;;;;;;5037054;28;20247;-81
2021/09/12 10:03:02;;;;;;;4.20;1.73;;;;;;;;;;5036393;28;20729;-81
2021/09/12 10:05:29;;;;;;;1.70;1.60;;;;;;;;;;5036634;28;20261;-81
2021/09/12 10:07:56;;;;;;;2.75;2.08;;;;;;;;;;5055127;28;20203;-82
2021/09/12 10:10:23;;;;;;;1.50;1.50;;;;;;;;;;5055273;28;20693;-80
2021/09/12 10:12:52;;;;;;;5.07;1.98;;;;;;;;;;5037309;28;20203;-80
2021/09/12 10:15:20;;;;;;;2.10;1.90;;;;;;;;;;5054779;28;20171;-81
2021/09/12 10:17:48;;;;;;;2.05;1.95;;;;;;;;;;5036533;28;20200;-81
2021/09/12 10:20:16;;;;;;;1.73;1.63;;;;;;;;;;5054591;28;20267;-84
2021/09/12 10:22:49;;;;;;;1.50;1.50;;;;;;;;;;5055089;28;20247;-83
2021/09/12 10:25:17;;;;;;;3.97;1.67;;;;;;;;;;5055237;28;20203;-87
2021/09/12 10:27:44;;;;;;;1.25;1.20;;;;;;;;;;5037214;28;20655;-85
2021/09/12 10:30:19;;;;;;;1.60;1.50;;;;;;;;;;5036801;28;20203;-84
2021/09/12 10:32:45;;;;;;;2.42;1.35;;;;;;;;;;5054407;28;20722;-83
2021/09/12 10:35:13;;;;;;;2.67;1.85;;;;;;;;;;5054687;28;20199;-83
2021/09/12 10:37:40;;;;;;;2.33;1.50;;;;;;;;;;5036099;28;20203;-82
2021/09/12 10:40:07;;;;;;;2.42;1.60;;;;;;;;;;5036206;28;20609;-84
2021/09/12 10:42:42;;;;;;;2.15;1.40;;;;;;;;;;5054045;28;20238;-84
2021/09/12 10:45:20;;;;;;;1.33;1.33;;;;;;;;;;5054515;28;20175;-83
2021/09/12 10:47:47;;;;;;;1.52;1.50;;;;;;;;;;5054310;28;20207;-82
2021/09/12 10:50:32;;;;;;;1.80;1.70;;;;;;;;;;5036638;28;20694;-83
2021/09/12 10:52:59;;;;;;;2.75;1.30;;;;;;;;;;5053250;28;20242;-82
2021/09/12 10:55:25;;;;;;;3.17;1.55;;;;;;;;;;5036328;28;20231;-81
2021/09/12 10:57:52;;;;;;;2.15;1.40;;;;;;;;;;5036443;28;20230;-80
2021/09/12 11:00:20;;;;;;;1.33;1.27;;;;;;;;;;5054166;28;20233;-81
2021/09/12 11:02:48;;;;;;;1.30;1.30;;;;;;;;;;5036079;28;20238;-80
2021/09/12 11:05:25;;;;;;;1.58;1.48;;;;;;;;;;5036314;28;20191;-80
2021/09/12 11:07:52;;;;;;;1.30;1.30;;;;;;;;;;5054180;28;20235;-81
2021/09/12 11:10:34;;;;;;;1.70;1.60;;;;;;;;;;5054241;28;20639;-85
2021/09/12 11:13:00;;;;;;;1.40;1.30;;;;;;;;;;5035574;28;20583;-84
2021/09/12 11:15:29;;;;;;;1.50;1.40;;;;;;;;;;5054278;28;20671;-85
2021/09/12 11:17:56;;;;;;;2.83;1.35;;;;;;;;;;5036057;28;20218;-87
2021/09/12 11:20:22;;;;;;;3.15;1.40;;;;;;;;;;5035614;28;20251;-86
2021/09/12 11:22:50;;;;;;;1.85;1.70;;;;;;;;;;5035559;28;20195;-85
2021/09/12 11:25:20;;;;;;;1.38;1.30;;;;;;;;;;5035405;28;20737;-85
2021/09/12 11:27:59;;;;;;;1.15;1.10;;;;;;;;;;5053792;28;20603;-87
2021/09/12 11:30:26;;;;;;;1.77;1.30;;;;;;;;;;5036539;28;20238;-88
2021/09/12 11:32:54;;;;;;;3.55;1.60;;;;;;;;;;5053879;28;20180;-86
2021/09/12 11:35:21;;;;;;;1.83;1.40;;;;;;;;;;5052938;28;20211;-86
2021/09/12 11:38:02;;;;;;;1.20;1.20;;;;;;;;;;5035146;28;20191;-86
2021/09/12 11:40:29;;;;;;;1.55;1.45;;;;;;;;;;5034844;28;20270;-85
2021/09/12 11:43:06;;;;;;;2.08;1.58;;;;;;;;;;5035238;28;20560;-84
2021/09/12 11:45:33;;;;;;;1.20;1.10;;;;;;;;;;5053236;28;20644;-86
2021/09/12 11:48:02;;;;;;;1.25;1.17;;;;;;;;;;5052851;28;20683;-85
2021/09/12 11:50:29;;;;;;;1.27;1.27;;;;;;;;;;5035517;28;20242;-84
2021/09/12 11:52:56;;;;;;;1.30;1.30;;;;;;;;;;5034947;28;20249;-86
2021/09/12 11:55:24;;;;;;;2.33;1.40;;;;;;;;;;5035262;28;20245;-85
2021/09/12 11:58:00;;;;;;;1.30;1.30;;;;;;;;;;5052415;28;20243;-85
2021/09/12 12:00:26;;;;;;;1.33;1.23;;;;;;;;;;5035184;28;20623;-84
2021/09/12 12:02:54;;;;;;;1.50;1.33;;;;;;;;;;5034310;28;20199;-86
2021/09/12 12:05:22;;;;;;;1.60;1.23;;;;;;;;;;5052769;28;20203;-83
2021/09/12 12:07:51;;;;;;;1.55;1.33;;;;;;;;;;5052296;28;20246;-84
2021/09/12 12:10:30;;;;;;;2.35;1.23;;;;;;;;;;5034684;28;20552;-84
2021/09/12 12:12:56;;;;;;;1.45;1.35;;;;;;;;;;5034439;28;20215;-84
2021/09/12 12:15:30;;;;;;;1.70;1.60;;;;;;;;;;5052544;28;20211;-81
2021/09/12 12:17:57;;;;;;;1.38;1.38;;;;;;;;;;5051880;28;20239;-83
2021/09/12 12:20:25;;;;;;;1.40;1.30;;;;;;;;;;5033550;28;20637;-84
2021/09/12 12:22:52;;;;;;;1.33;1.23;;;;;;;;;;5052272;28;20245;-84
2021/09/12 12:25:27;;;;;;;1.60;1.45;;;;;;;;;;5052229;28;20663;-84
2021/09/12 12:27:53;;;;;;;1.20;1.17;;;;;;;;;;5034891;28;20229;-85
2021/09/12 12:30:20;;;;;;;1.60;1.50;;;;;;;;;;5052018;28;20235;-86
2021/09/12 12:32:47;;;;;;;1.38;1.38;;;;;;;;;;5033520;28;20219;-84
2021/09/12 12:35:14;;;;;;;2.33;1.50;;;;;;;;;;5051207;28;20235;-86
2021/09/12 12:37:43;;;;;;;3.88;1.50;;;;;;;;;;5033731;28;20208;-84
2021/09/12 12:40:10;;;;;;;1.58;1.20;;;;;;;;;;5034180;28;20660;-85
2021/09/12 12:42:39;;;;;;;1.48;1.30;;;;;;;;;;5051124;28;20218;-83
2021/09/12 12:45:19;;;;;;;1.88;1.35;;;;;;;;;;5051708;28;20588;-82
2021/09/12 12:47:46;;;;;;;1.30;1.30;;;;;;;;;;5051084;28;20601;-81
2021/09/12 12:50:12;;;;;;;1.33;1.25;;;;;;;;;;5051240;28;20512;-83
2021/09/12 12:52:39;;;;;;;1.40;1.30;;;;;;;;;;5050850;28;20222;-83
2021/09/12 12:55:07;;;;;;;2.67;2.03;;;;;;;;;;5051351;28;20592;-82
2021/09/12 12:57:35;;;;;;;2.17;1.40;;;;;;;;;;5033204;28;20264;-83
2021/09/12 13:00:01;;;;;;;1.00;0.98;;;;;;;;;;5051085;28;20289;-81
2021/09/12 13:02:28;;;;;;;2.78;1.20;;;;;;;;;;5051181;28;20222;-81
2021/09/12 13:04:55;;;;;;;1.40;1.30;;;;;;;;;;5033684;28;20230;-80
2021/09/12 13:07:21;;;;;;;1.33;1.33;;;;;;;;;;5051169;28;20203;-80
2021/09/12 13:09:48;;;;;;;1.80;1.20;;;;;;;;;;5050332;28;20203;-80
2021/09/12 13:12:16;;;;;;;1.83;1.35;;;;;;;;;;5051582;28;20206;-81
2021/09/12 13:14:42;;;;;;;1.42;1.33;;;;;;;;;;5050678;28;20242;-81
2021/09/12 13:17:09;;;;;;;1.20;1.20;;;;;;;;;;5033132;28;20196;-81
2021/09/12 13:19:36;;;;;;;1.30;1.20;;;;;;;;;;5033169;28;20744;-82
2021/09/12 13:22:03;;;;;;;1.23;1.23;;;;;;;;;;5051164;28;20695;-81
2021/09/12 13:24:29;;;;;;;1.85;1.30;;;;;;;;;;5033354;28;20298;-82
2021/09/12 13:26:56;;;;;;;2.40;1.30;;;;;;;;;;5033078;28;20238;-82
2021/09/12 13:29:24;;;;;;;1.35;1.35;;;;;;;;;;5051188;28;20257;-82
2021/09/12 13:31:50;;;;;;;2.03;1.20;;;;;;;;;;5029364;28;20286;-82
2021/09/12 13:34:17;;;;;;;1.30;1.20;;;;;;;;;;5029386;28;20231;-82
2021/09/12 13:36:44;;;;;;;2.55;1.67;;;;;;;;;;5030142;28;20278;-82
2021/09/12 13:39:11;;;;;;;2.67;1.30;;;;;;;;;;5031213;28;20251;-82
2021/09/12 13:41:37;;;;;;;1.38;1.27;;;;;;;;;;5029712;28;20357;-83
2021/09/12 13:44:04;;;;;;;1.20;1.17;;;;;;;;;;5029648;28;20256;-82
2021/09/12 13:46:32;;;;;;;1.65;1.02;;;;;;;;;;5031490;28;20232;-83
2021/09/12 13:48:59;;;;;;;1.40;1.10;;;;;;;;;;5031650;28;20240;-85
2021/09/12 13:51:26;;;;;;;1.20;1.20;;;;;;;;;;5030862;28;20224;-84
2021/09/12 13:53:52;;;;;;;1.10;1.10;;;;;;;;;;5033106;28;20235;-85
2021/09/12 13:56:19;;;;;;;1.30;1.30;;;;;;;;;;5031343;28;20683;-81
2021/09/12 13:58:46;;;;;;;2.80;1.25;;;;;;;;;;5031288;28;20447;-86
2021/09/12 14:01:12;;;;;;;0.93;0.93;;;;;;;;;;5030937;28;20232;-82
2021/09/12 14:03:40;;;;;;;1.35;1.10;;;;;;;;;;5029951;28;20659;-81
2021/09/12 14:06:07;;;;;;;1.10;1.10;;;;;;;;;;5031340;28;20250;-82
2021/09/12 14:08:34;;;;;;;1.23;1.10;;;;;;;;;;5031124;28;20227;-81
2021/09/12 14:11:01;;;;;;;1.23;1.20;;;;;;;;;;5031094;28;20244;-82
2021/09/12 14:13:29;;;;;;;1.30;1.17;;;;;;;;;;5029425;28;20231;-82
2021/09/12 14:15:56;;;;;;;0.95;0.90;;;;;;;;;;5029200;28;20232;-82
2021/09/12 14:18:22;;;;;;;1.58;0.90;;;;;;;;;;5029760;28;20196;-82
2021/09/12 14:20:50;;;;;;;2.28;1.10;;;;;;;;;;5038785;28;20238;-82
2021/09/12 14:23:17;;;;;;;1.80;0.77;;;;;;;;;;5046824;28;20196;-82
2021/09/12 14:25:44;;;;;;;1.23;1.10;;;;;;;;;;5041055;28;20575;-82
2021/09/12 14:28:10;;;;;;;1.42;1.02;;;;;;;;;;5039248;28;20214;-82
2021/09/12 14:30:37;;;;;;;2.70;1.30;;;;;;;;;;5040233;28;20241;-82
2021/09/12 14:33:05;;;;;;;1.15;1.10;;;;;;;;;;5041189;28;20196;-82
2021/09/12 14:35:31;;;;;;;1.33;1.10;;;;;;;;;;5040528;28;20212;-84
2021/09/12 14:38:01;;;;;;;1.15;1.15;;;;;;;;;;5034212;28;20287;-85
2021/09/12 14:40:27;;;;;;;1.38;1.30;;;;;;;;;;5032863;28;20277;-83
2021/09/12 14:42:54;;;;;;;1.02;1.02;;;;;;;;;;5036398;28;20273;-82
2021/09/12 14:45:22;;;;;;;1.40;1.10;;;;;;;;;;5040996;28;20227;-83